Time;durP1;ratioP1;P1;durP2;ratioP2;P2;SDS_P1;SDS_P2;PMS_P1;PMS_P2;Temp;Humidity;BMP_temperature;BMP_pressure;BME280_temperature;BME280_humidity;BME280_pressure;Samples;Min_cycle;Max_cycle;Signal;HPM_P1;HPM_P2
2021/08/08 00:02:04;;;;;;;0.90;0.88;;;;;;;13.62;100.00;100505.26;1635124;87;21065;-92
2021/08/08 00:04:30;;;;;;;2.37;1.02;;;;;;;13.64;100.00;100509.34;1661128;86;21476;-91
2021/08/08 00:06:57;;;;;;;1.72;1.62;;;;;;;13.64;100.00;100510.70;1632719;87;21004;-95
2021/08/08 00:09:24;;;;;;;2.92;1.35;;;;;;;13.63;100.00;100515.14;1662053;86;21558;-89
2021/08/08 00:11:51;;;;;;;1.22;0.95;;;;;;;13.63;100.00;100515.95;1634863;86;21133;-89
2021/08/08 00:14:18;;;;;;;1.20;1.10;;;;;;;13.65;100.00;100522.50;1657054;85;21041;-93
2021/08/08 00:16:45;;;;;;;1.30;1.20;;;;;;;13.64;100.00;100518.14;1655334;86;21061;-92
2021/08/08 00:19:12;;;;;;;2.30;1.12;;;;;;;13.63;100.00;100524.75;1643716;87;21545;-90
2021/08/08 00:21:40;;;;;;;1.55;1.35;;;;;;;13.61;100.00;100515.99;1654749;86;21109;-93
2021/08/08 00:24:07;;;;;;;2.83;1.22;;;;;;;13.60;100.00;100502.83;1655378;86;21515;-91
2021/08/08 00:26:34;;;;;;;1.20;1.10;;;;;;;13.65;100.00;100504.13;1638810;87;21617;-89
2021/08/08 00:29:01;;;;;;;3.15;1.37;;;;;;;13.71;100.00;100504.84;1655901;85;21056;-92
2021/08/08 00:31:29;;;;;;;2.02;1.35;;;;;;;13.74;100.00;100499.56;1654861;86;21095;-89
2021/08/08 00:33:57;;;;;;;0.93;0.85;;;;;;;13.82;100.00;100495.31;1638667;87;22134;-89
2021/08/08 00:36:25;;;;;;;2.00;1.07;;;;;;;13.89;100.00;100490.25;1655364;86;21089;-93
2021/08/08 00:38:56;;;;;;;2.35;1.57;;;;;;;13.99;100.00;100486.52;1656382;86;21097;-92
2021/08/08 00:41:22;;;;;;;2.12;1.52;;;;;;;14.14;100.00;100478.03;1644096;86;21118;-89
2021/08/08 00:43:50;;;;;;;1.50;1.17;;;;;;;14.27;100.00;100481.07;1655299;86;21058;-93
2021/08/08 00:46:17;;;;;;;1.98;1.37;;;;;;;14.34;100.00;100475.99;1655293;86;21038;-90
2021/08/08 00:48:44;;;;;;;0.85;0.85;;;;;;;14.44;100.00;100471.70;1656034;86;21077;-91
2021/08/08 00:51:12;;;;;;;1.00;0.93;;;;;;;14.56;100.00;100483.05;1655205;86;21500;-89
2021/08/08 00:53:44;;;;;;;1.80;1.12;;;;;;;14.62;100.00;100492.80;1655292;85;21038;-89
2021/08/08 00:56:12;;;;;;;1.75;1.30;;;;;;;14.65;100.00;100502.95;1655186;86;21577;-90
2021/08/08 00:58:39;;;;;;;1.00;0.70;;;;;;;14.66;100.00;100494.37;1655936;86;21065;-92
2021/08/08 01:01:06;;;;;;;1.47;1.12;;;;;;;14.70;100.00;100495.97;1654752;86;21216;-93
2021/08/08 01:03:34;;;;;;;2.55;1.42;;;;;;;14.71;100.00;100495.67;1630606;86;21504;-89
2021/08/08 01:06:07;;;;;;;1.15;1.00;;;;;;;14.70;100.00;100501.47;1656261;85;21156;-91
2021/08/08 01:08:36;;;;;;;2.22;0.95;;;;;;;14.70;100.00;100495.97;1655930;85;21616;-89
2021/08/08 01:11:03;;;;;;;1.77;1.30;;;;;;;14.75;100.00;100494.48;1609585;86;22330;-88
2021/08/08 01:13:30;;;;;;;1.72;1.00;;;;;;;14.78;100.00;100488.36;1665213;83;20988;-92
2021/08/08 01:15:58;;;;;;;2.08;1.05;;;;;;;14.81;100.00;100491.33;1675359;85;21047;-89
2021/08/08 01:18:25;;;;;;;2.60;1.17;;;;;;;14.84;100.00;100494.03;1674998;85;21509;-89
2021/08/08 01:20:52;;;;;;;2.83;1.25;;;;;;;14.86;100.00;100495.08;1674971;85;21033;-92
2021/08/08 01:23:21;;;;;;;1.82;1.10;;;;;;;14.87;100.00;100493.41;1639497;86;21101;-90
2021/08/08 01:25:48;;;;;;;1.70;1.05;;;;;;;14.86;100.00;100494.55;1610750;86;21120;-92
2021/08/08 01:28:16;;;;;;;1.02;0.90;;;;;;;14.86;100.00;100499.20;1661206;86;21092;-89
2021/08/08 01:30:44;;;;;;;1.37;1.17;;;;;;;14.86;100.00;100498.67;1660888;86;21080;-93
2021/08/08 01:33:19;;;;;;;2.05;1.07;;;;;;;14.86;100.00;100502.80;1636082;86;21237;-90
2021/08/08 01:35:52;;;;;;;1.70;0.98;;;;;;;14.85;100.00;100512.16;1660180;86;21140;-89
2021/08/08 01:38:21;;;;;;;1.67;1.10;;;;;;;14.85;100.00;100509.41;1660847;86;21133;-89
2021/08/08 01:41:02;;;;;;;1.30;1.10;;;;;;;14.84;100.00;100510.53;1660963;86;21084;-90
2021/08/08 01:43:33;;;;;;;1.25;1.00;;;;;;;14.81;100.00;100513.88;1664389;85;21129;-88
2021/08/08 01:46:05;;;;;;;2.08;0.95;;;;;;;14.77;100.00;100515.63;1632875;86;21599;-93
2021/08/08 01:48:34;;;;;;;1.50;1.40;;;;;;;14.72;100.00;100504.73;1661172;86;21157;-88
2021/08/08 01:51:03;;;;;;;8.15;1.57;;;;;;;14.69;100.00;100503.94;1632649;86;21236;-93
2021/08/08 01:53:29;;;;;;;1.30;1.20;;;;;;;14.70;100.00;100505.59;1636030;86;21605;-92
2021/08/08 01:55:57;;;;;;;1.42;0.90;;;;;;;14.71;100.00;100504.45;1632512;86;21147;-92
2021/08/08 01:58:27;;;;;;;1.72;1.17;;;;;;;14.71;100.00;100501.70;1632296;86;21073;-93
2021/08/08 02:00:56;;;;;;;2.42;1.47;;;;;;;14.70;100.00;100499.52;1604800;87;20995;-93
2021/08/08 02:03:33;;;;;;;1.25;1.07;;;;;;;14.70;100.00;100498.72;1670944;85;21031;-89
2021/08/08 02:06:01;;;;;;;2.15;1.65;;;;;;;14.71;100.00;100512.71;1609809;86;21449;-89
2021/08/08 02:08:28;;;;;;;2.47;1.12;;;;;;;14.70;100.00;100520.72;1651368;86;21316;-93
2021/08/08 02:10:57;;;;;;;1.12;1.10;;;;;;;14.68;100.00;100511.95;1657666;86;21144;-89
2021/08/08 02:13:25;;;;;;;2.37;1.57;;;;;;;14.67;100.00;100507.59;1675278;85;21027;-89
2021/08/08 02:15:52;;;;;;;0.98;0.90;;;;;;;14.68;100.00;100510.58;1658124;86;21069;-93
2021/08/08 02:18:21;;;;;;;0.70;0.70;;;;;;;14.66;100.00;100512.25;1658067;85;21027;-88
2021/08/08 02:20:49;;;;;;;1.60;0.72;;;;;;;14.64;100.00;100521.39;1673693;85;21062;-92
2021/08/08 02:23:18;;;;;;;2.02;1.05;;;;;;;14.62;100.00;100520.30;1661785;86;21038;-91
2021/08/08 02:25:50;;;;;;;1.10;1.00;;;;;;;14.61;100.00;100529.69;1666223;86;21097;-93
2021/08/08 02:28:17;;;;;;;0.98;0.78;;;;;;;14.60;100.00;100535.48;1666199;86;21020;-91
2021/08/08 02:30:44;;;;;;;1.15;1.00;;;;;;;14.59;100.00;100521.48;1663966;85;21026;-89
2021/08/08 02:33:11;;;;;;;2.33;1.02;;;;;;;14.63;100.00;100523.30;1661450;85;21095;-89
2021/08/08 02:35:39;;;;;;;2.08;1.30;;;;;;;14.65;100.00;100522.20;1633003;86;21132;-93
2021/08/08 02:38:06;;;;;;;0.70;0.70;;;;;;;14.67;100.00;100524.09;1661048;86;21034;-89
2021/08/08 02:40:33;;;;;;;1.17;0.90;;;;;;;14.69;100.00;100522.66;1662097;85;21092;-89
2021/08/08 02:43:00;;;;;;;1.52;1.17;;;;;;;14.71;100.00;100522.34;1662610;85;21076;-89
2021/08/08 02:45:28;;;;;;;5.53;1.10;;;;;;;14.71;100.00;100520.96;1662101;86;21098;-92
2021/08/08 02:47:56;;;;;;;1.32;1.17;;;;;;;14.71;100.00;100510.80;1661044;86;21057;-92
2021/08/08 02:50:24;;;;;;;4.22;1.37;;;;;;;14.71;100.00;100509.95;1661118;86;21145;-88
2021/08/08 02:52:53;;;;;;;1.65;0.90;;;;;;;14.73;100.00;100516.78;1663917;85;21073;-92
2021/08/08 02:55:20;;;;;;;0.90;0.90;;;;;;;14.77;100.00;100511.50;1661257;86;21100;-91
2021/08/08 02:57:49;;;;;;;2.22;1.35;;;;;;;14.79;100.00;100516.14;1661203;86;21177;-88
2021/08/08 03:00:16;;;;;;;1.72;1.20;;;;;;;14.82;100.00;100512.20;1661146;86;22258;-92
2021/08/08 03:02:43;;;;;;;1.72;1.27;;;;;;;14.84;100.00;100513.29;1663368;85;21136;-94
2021/08/08 03:05:10;;;;;;;1.00;0.95;;;;;;;14.86;100.00;100523.43;1661726;86;21041;-90
2021/08/08 03:07:37;;;;;;;1.02;1.00;;;;;;;14.87;100.00;100531.92;1661461;86;21720;-89
2021/08/08 03:10:08;;;;;;;1.77;1.35;;;;;;;14.91;100.00;100537.61;1661079;86;21093;-92
2021/08/08 03:12:35;;;;;;;1.32;1.10;;;;;;;14.94;100.00;100535.08;1665496;84;21064;-93
2021/08/08 03:15:03;;;;;;;0.98;0.75;;;;;;;14.98;100.00;100531.95;1657787;85;20956;-94
2021/08/08 03:17:30;;;;;;;1.27;0.85;;;;;;;15.08;100.00;100532.87;1650729;86;21370;-92
2021/08/08 03:19:56;;;;;;;1.22;1.10;;;;;;;15.20;100.00;100541.42;1650893;86;21097;-89
2021/08/08 03:22:23;;;;;;;1.62;1.10;;;;;;;15.31;100.00;100540.66;1650842;86;21523;-89
2021/08/08 03:24:51;;;;;;;1.20;0.85;;;;;;;15.42;100.00;100547.55;1627760;87;21044;-91
2021/08/08 03:27:17;;;;;;;1.40;1.12;;;;;;;15.52;100.00;100550.07;1641092;87;21016;-92
2021/08/08 03:29:46;;;;;;;1.05;0.95;;;;;;;15.60;100.00;100540.25;1655326;86;21116;-88
2021/08/08 03:32:13;;;;;;;1.20;0.95;;;;;;;15.66;100.00;100540.40;1655111;86;21099;-89
2021/08/08 03:34:39;;;;;;;1.95;1.40;;;;;;;15.71;100.00;100537.55;1656096;86;20993;-90
2021/08/08 03:37:08;;;;;;;1.12;1.02;;;;;;;15.80;100.00;100544.50;1655380;86;21061;-89
2021/08/08 03:39:37;;;;;;;1.05;1.00;;;;;;;15.85;100.00;100546.59;1655177;86;22110;-89
2021/08/08 03:42:05;;;;;;;1.77;1.20;;;;;;;15.94;100.00;100545.83;1655389;86;21049;-90
2021/08/08 03:44:32;;;;;;;1.15;1.02;;;;;;;15.99;100.00;100546.52;1623137;88;20991;-88
2021/08/08 03:46:59;;;;;;;1.40;1.30;;;;;;;16.06;100.00;100546.08;1622795;88;21074;-92
2021/08/08 03:49:26;;;;;;;1.05;0.95;;;;;;;16.15;100.00;100540.61;1622804;88;21069;-89
2021/08/08 03:51:53;;;;;;;0.70;0.70;;;;;;;16.22;100.00;100534.92;1622697;88;20931;-93
2021/08/08 03:54:20;;;;;;;1.17;1.07;;;;;;;16.29;100.00;100533.08;1623296;88;21368;-88
2021/08/08 03:56:47;;;;;;;1.20;1.10;;;;;;;16.37;100.00;100532.33;1622769;88;21054;-94
2021/08/08 03:59:15;;;;;;;1.52;0.95;;;;;;;16.45;100.00;100536.27;1650816;86;21080;-89
2021/08/08 04:01:50;;;;;;;0.75;0.75;;;;;;;16.52;100.00;100538.00;1635750;87;21143;-93
2021/08/08 04:04:17;;;;;;;1.07;0.98;;;;;;;16.59;100.00;100541.67;1613234;88;21043;-89
2021/08/08 04:06:44;;;;;;;1.50;1.20;;;;;;;16.65;100.00;100548.12;1636412;86;21075;-89
2021/08/08 04:09:11;;;;;;;1.25;1.15;;;;;;;16.73;100.00;100547.33;1655609;86;21092;-94
2021/08/08 04:11:40;;;;;;;1.40;1.30;;;;;;;16.83;100.00;100554.55;1640786;87;21516;-90
2021/08/08 04:14:06;;;;;;;1.45;1.12;;;;;;;16.92;100.00;100555.97;1656279;85;21032;-94
2021/08/08 04:16:33;;;;;;;1.70;1.25;;;;;;;17.01;100.00;100554.03;1660995;86;21048;-93
2021/08/08 04:19:02;;;;;;;0.90;0.80;;;;;;;17.09;100.00;100549.13;1632552;87;21058;-91
2021/08/08 04:21:28;;;;;;;1.15;1.05;;;;;;;17.18;100.00;100542.23;1635327;85;21132;-90
2021/08/08 04:23:56;;;;;;;1.10;1.00;;;;;;;17.24;100.00;100548.43;1635457;87;21102;-90
2021/08/08 04:26:23;;;;;;;0.95;0.93;;;;;;;17.30;100.00;100545.75;1660909;86;21674;-90
2021/08/08 04:28:50;;;;;;;1.42;0.90;;;;;;;17.37;100.00;100548.84;1605396;87;21875;-93
2021/08/08 04:31:17;;;;;;;2.05;1.52;;;;;;;17.46;100.00;100549.68;1661630;86;20994;-94
2021/08/08 04:33:44;;;;;;;3.22;1.42;;;;;;;17.53;100.00;100547.80;1674738;85;21071;-94
2021/08/08 04:36:13;;;;;;;1.50;1.15;;;;;;;17.60;100.00;100558.61;1675333;85;21078;-91
2021/08/08 04:38:40;;;;;;;1.57;1.02;;;;;;;17.68;100.00;100561.16;1674988;85;21042;-93
2021/08/08 04:41:06;;;;;;;1.17;1.00;;;;;;;17.75;100.00;100560.66;1639516;85;21684;-93
2021/08/08 04:43:34;;;;;;;0.95;0.85;;;;;;;17.80;100.00;100561.36;1662824;85;21053;-94
2021/08/08 04:46:00;;;;;;;1.90;1.12;;;;;;;17.87;100.00;100560.84;1661074;86;21054;-90
2021/08/08 04:48:28;;;;;;;1.27;1.10;;;;;;;17.93;100.00;100558.17;1632624;86;21481;-94
2021/08/08 04:50:54;;;;;;;1.40;1.27;;;;;;;18.04;100.00;100558.64;1661516;86;21010;-90
2021/08/08 04:53:23;;;;;;;2.65;1.30;;;;;;;18.13;100.00;100553.92;1663832;85;21552;-91
2021/08/08 04:55:49;;;;;;;1.37;1.27;;;;;;;18.21;100.00;100555.85;1632229;86;21121;-94
2021/08/08 04:58:16;;;;;;;2.55;1.20;;;;;;;18.31;100.00;100562.99;1660859;86;21085;-91
2021/08/08 05:00:44;;;;;;;1.05;0.95;;;;;;;18.35;100.00;100563.97;1660216;85;20992;-91
2021/08/08 05:03:12;;;;;;;1.47;1.30;;;;;;;18.41;100.00;100569.55;1667976;85;21521;-90
2021/08/08 05:05:39;;;;;;;3.90;2.35;;;;;;;18.45;100.00;100568.34;1631913;86;21579;-94
2021/08/08 05:08:06;;;;;;;2.10;1.65;;;;;;;18.48;100.00;100572.63;1632749;87;21089;-91
2021/08/08 05:10:33;;;;;;;1.80;1.57;;;;;;;18.50;100.00;100582.58;1633325;86;21504;-91
2021/08/08 05:13:00;;;;;;;1.02;0.93;;;;;;;18.52;100.00;100592.72;1636046;87;21054;-90
2021/08/08 05:15:28;;;;;;;1.87;1.40;;;;;;;18.54;100.00;100580.75;1663767;86;21060;-92
2021/08/08 05:17:57;;;;;;;1.37;1.20;;;;;;;18.61;100.00;100584.63;1632734;87;21088;-91
2021/08/08 05:20:23;;;;;;;2.00;1.72;;;;;;;18.72;100.00;100590.64;1661259;85;22167;-90
2021/08/08 05:22:51;;;;;;;1.45;1.35;;;;;;;18.74;100.00;100585.56;1633580;86;21469;-91
2021/08/08 05:25:19;;;;;;;1.07;0.98;;;;;;;18.73;100.00;100592.26;1631457;87;21096;-91
2021/08/08 05:27:46;;;;;;;1.85;1.37;;;;;;;18.82;100.00;100586.16;1605821;87;21623;-91
2021/08/08 05:30:15;;;;;;;1.10;1.00;;;;;;;18.82;100.00;100586.16;1632772;87;21936;-92
2021/08/08 05:32:43;;;;;;;2.08;1.20;;;;;;;18.87;100.00;100580.44;1647439;85;21504;-94
2021/08/08 05:35:11;;;;;;;1.05;0.95;;;;;;;19.08;100.00;100582.45;1660850;86;21088;-93
2021/08/08 05:37:38;;;;;;;1.00;0.90;;;;;;;19.21;100.00;100573.08;1659163;86;21078;-91
2021/08/08 05:40:07;;;;;;;1.35;1.20;;;;;;;19.21;100.00;100573.08;1628752;87;21135;-91
2021/08/08 05:42:36;;;;;;;1.57;1.40;;;;;;;19.35;100.00;100581.16;1631699;87;21109;-90
2021/08/08 05:45:06;;;;;;;1.47;1.37;;;;;;;19.38;100.00;100583.25;1656753;86;21067;-91
2021/08/08 05:47:33;;;;;;;1.20;1.10;;;;;;;19.46;100.00;100588.50;1632354;87;21050;-90
2021/08/08 05:50:00;;;;;;;1.25;1.15;;;;;;;19.58;100.00;100590.55;1631537;87;21078;-90
2021/08/08 05:52:28;;;;;;;1.37;1.17;;;;;;;19.58;100.00;100590.55;1609231;88;21088;-91
2021/08/08 05:54:56;;;;;;;1.57;1.00;;;;;;;19.68;98.77;100597.94;1638515;86;21072;-90
2021/08/08 05:57:23;;;;;;;1.67;1.30;;;;;;;19.78;99.64;100608.36;1660214;86;21414;-90
2021/08/08 05:59:50;;;;;;;1.10;1.02;;;;;;;19.78;99.64;100608.36;1604526;87;21089;-90
2021/08/08 06:02:16;;;;;;;1.65;1.12;;;;;;;19.88;98.25;100607.95;1662787;85;21108;-91
2021/08/08 06:04:43;;;;;;;1.65;1.10;;;;;;;20.00;97.33;100613.56;1659692;86;21079;-90
2021/08/08 06:07:11;;;;;;;2.17;1.27;;;;;;;20.14;97.56;100614.11;1644100;85;21052;-93
2021/08/08 06:09:39;;;;;;;1.07;1.07;;;;;;;20.25;97.11;100617.29;1679159;84;21546;-90
2021/08/08 06:12:07;;;;;;;3.70;1.42;;;;;;;20.31;96.60;100617.88;1639729;85;21061;-90
2021/08/08 06:14:34;;;;;;;2.02;1.30;;;;;;;20.35;94.57;100618.80;1659692;85;22000;-96
2021/08/08 06:17:04;;;;;;;1.52;1.17;;;;;;;20.47;94.34;100616.65;1649661;86;21069;-91
2021/08/08 06:19:32;;;;;;;1.20;0.93;;;;;;;20.47;94.34;100616.65;1649531;86;21453;-94
2021/08/08 06:22:01;;;;;;;0.95;0.88;;;;;;;20.59;94.63;100616.13;1642899;86;21084;-90
2021/08/08 06:24:28;;;;;;;1.40;0.95;;;;;;;20.78;94.92;100624.52;1612104;87;21619;-94
2021/08/08 06:26:55;;;;;;;1.40;1.02;;;;;;;21.02;93.29;100614.83;1638208;87;21350;-90
2021/08/08 06:29:22;;;;;;;1.10;1.00;;;;;;;21.16;92.87;100611.70;1637960;87;21081;-91
2021/08/08 06:31:50;;;;;;;1.15;1.05;;;;;;;21.21;90.69;100617.61;1637733;87;21025;-94
2021/08/08 06:34:17;;;;;;;1.00;0.90;;;;;;;21.24;90.66;100614.13;1637475;87;20950;-90
2021/08/08 06:36:44;;;;;;;1.55;1.05;;;;;;;21.33;89.92;100615.41;1638789;87;21068;-93
2021/08/08 06:39:12;;;;;;;1.00;0.78;;;;;;;21.39;87.62;100621.81;1638050;87;21077;-95
2021/08/08 06:41:39;;;;;;;1.10;1.00;;;;;;;21.34;87.94;100611.46;1637695;87;21070;-91
2021/08/08 06:44:08;;;;;;;0.95;0.80;;;;;;;21.38;89.96;100614.59;1638096;87;21135;-95
2021/08/08 06:46:35;;;;;;;1.32;0.95;;;;;;;21.52;88.66;100613.47;1638974;87;21200;-94
2021/08/08 06:49:02;;;;;;;0.98;0.80;;;;;;;21.67;88.76;100620.50;1638650;87;21034;-93
2021/08/08 06:51:28;;;;;;;1.22;0.90;;;;;;;21.76;85.92;100618.98;1638174;87;21106;-93
2021/08/08 06:53:55;;;;;;;1.42;1.00;;;;;;;21.71;85.29;100616.45;1624092;87;21075;-93
2021/08/08 06:56:22;;;;;;;2.65;0.90;;;;;;;21.74;86.03;100621.30;1613235;87;21092;-91
2021/08/08 06:59:13;;;;;;;0.88;0.88;;;;;;;21.81;84.93;100625.70;1610914;89;21095;-91
2021/08/08 07:01:41;;;;;;;1.30;1.20;;;;;;;21.83;85.87;100631.69;1641048;87;21101;-90
2021/08/08 07:04:08;;;;;;;2.02;1.10;;;;;;;21.87;85.92;100618.71;1611015;89;21128;-94
2021/08/08 07:06:35;;;;;;;0.90;0.80;;;;;;;22.01;85.69;100625.88;1638904;87;21105;-93
2021/08/08 07:09:02;;;;;;;1.10;1.00;;;;;;;22.16;86.32;100616.77;1586129;89;21076;-94
2021/08/08 07:11:30;;;;;;;0.98;0.93;;;;;;;22.38;85.22;100621.56;1638620;87;21065;-92
2021/08/08 07:13:57;;;;;;;1.60;0.88;;;;;;;22.49;84.49;100624.07;1598338;87;21109;-91
2021/08/08 07:16:23;;;;;;;0.78;0.60;;;;;;;22.55;83.80;100626.81;1611052;87;21111;-92
2021/08/08 07:18:51;;;;;;;0.55;0.55;;;;;;;22.58;81.00;100619.75;1639204;87;21112;-92
2021/08/08 07:21:18;;;;;;;1.47;1.05;;;;;;;22.53;79.71;100619.42;1638636;87;21109;-93
2021/08/08 07:23:44;;;;;;;1.30;0.80;;;;;;;22.50;77.15;100623.73;1614160;87;22123;-91
2021/08/08 07:26:11;;;;;;;0.72;0.70;;;;;;;22.43;77.66;100614.38;1639109;87;21040;-93
2021/08/08 07:28:39;;;;;;;4.37;1.12;;;;;;;22.39;80.06;100613.45;1639093;87;21104;-95
2021/08/08 07:31:06;;;;;;;0.75;0.55;;;;;;;22.45;79.52;100626.77;1638745;87;21614;-92
2021/08/08 07:33:33;;;;;;;1.02;0.72;;;;;;;22.49;80.13;100618.50;1636763;87;21028;-91
2021/08/08 07:35:59;;;;;;;1.35;0.93;;;;;;;22.54;81.47;100621.83;1617632;87;20985;-91
2021/08/08 07:38:26;;;;;;;0.88;0.70;;;;;;;22.69;80.53;100622.22;1624550;87;21571;-93
2021/08/08 07:40:52;;;;;;;0.82;0.80;;;;;;;22.79;80.38;100620.30;1627370;88;21054;-94
2021/08/08 07:43:20;;;;;;;0.80;0.62;;;;;;;22.90;79.34;100613.63;1629621;86;21041;-91
2021/08/08 07:45:48;;;;;;;1.37;0.68;;;;;;;23.09;79.71;100617.90;1637262;87;20972;-91
2021/08/08 07:48:14;;;;;;;0.90;0.80;;;;;;;23.35;78.14;100617.94;1632464;87;21104;-94
2021/08/08 07:50:43;;;;;;;0.78;0.50;;;;;;;23.50;76.45;100617.09;1628099;88;21064;-91
2021/08/08 07:53:09;;;;;;;1.65;0.70;;;;;;;23.71;76.40;100615.95;1639838;86;21037;-94
2021/08/08 07:55:37;;;;;;;1.10;0.90;;;;;;;23.90;73.88;100616.60;1639114;87;21037;-91
2021/08/08 07:58:03;;;;;;;0.78;0.60;;;;;;;24.02;74.48;100610.28;1638946;87;21080;-94
2021/08/08 08:00:30;;;;;;;1.17;0.88;;;;;;;24.23;74.09;100606.31;1638537;87;21464;-91
2021/08/08 08:02:59;;;;;;;0.72;0.72;;;;;;;24.39;73.08;100600.66;1638509;85;21084;-94
2021/08/08 08:05:26;;;;;;;2.20;0.80;;;;;;;24.39;72.10;100609.83;1640103;87;20918;-94
2021/08/08 08:07:54;;;;;;;0.75;0.68;;;;;;;24.29;73.13;100604.84;1638826;86;21068;-90
2021/08/08 08:10:24;;;;;;;1.47;0.75;;;;;;;24.35;71.92;100599.77;1639467;87;21060;-95
2021/08/08 08:12:53;;;;;;;;;;;;;;;24.37;71.95;100591.23;1640626;86;21084;-95
2021/08/08 08:15:20;;;;;;;0.80;0.80;;;;;;;24.36;71.31;100587.44;1644279;83;20191;-96
2021/08/08 08:17:50;;;;;;;1.12;0.62;;;;;;;24.18;71.42;100582.87;1661111;86;21069;-94
2021/08/08 08:20:18;;;;;;;0.50;0.50;;;;;;;24.11;72.67;100578.55;1633357;87;21057;-90
2021/08/08 08:22:45;;;;;;;0.60;0.47;;;;;;;24.17;73.33;100575.69;1645071;86;21492;-95
2021/08/08 08:25:11;;;;;;;1.15;1.02;;;;;;;24.46;73.43;100574.29;1661806;86;21018;-90
2021/08/08 08:27:38;;;;;;;1.20;0.98;;;;;;;24.73;71.89;100578.53;1633160;87;21097;-95
2021/08/08 08:30:07;;;;;;;0.95;0.80;;;;;;;24.91;70.48;100583.05;1661771;86;21067;-90
2021/08/08 08:32:34;;;;;;;1.92;1.17;;;;;;;25.11;69.99;100590.16;1635220;87;21004;-93
2021/08/08 08:35:03;;;;;;;0.57;0.47;;;;;;;25.08;70.00;100581.13;1661601;86;21057;-95
2021/08/08 08:37:33;;;;;;;1.10;0.88;;;;;;;24.98;69.84;100587.36;1632744;87;21089;-90
2021/08/08 08:40:00;;;;;;;2.02;0.45;;;;;;;24.97;68.65;100585.73;1661497;86;21522;-91
2021/08/08 08:42:30;;;;;;;0.85;0.68;;;;;;;24.99;68.99;100586.17;1635701;87;21077;-92
2021/08/08 08:44:57;;;;;;;0.90;0.70;;;;;;;24.99;69.91;100590.36;1661099;86;21032;-93
2021/08/08 08:47:23;;;;;;;0.80;0.68;;;;;;;25.06;67.83;100575.91;1625571;86;21503;-90
2021/08/08 08:50:01;;;;;;;0.68;0.68;;;;;;;24.96;67.99;100568.16;1625727;86;21071;-90
2021/08/08 08:52:33;;;;;;;1.17;0.72;;;;;;;24.97;68.62;100570.36;1628559;86;21481;-93
2021/08/08 08:55:02;;;;;;;0.60;0.57;;;;;;;25.00;69.00;100555.06;1632927;87;21485;-93
2021/08/08 08:57:29;;;;;;;0.72;0.50;;;;;;;25.04;68.10;100556.50;1632868;86;20965;-94
2021/08/08 08:59:58;;;;;;;0.70;0.55;;;;;;;25.10;68.19;100550.81;1661091;86;21100;-93
2021/08/08 09:02:25;;;;;;;0.50;0.50;;;;;;;25.23;67.98;100552.23;1636314;85;20967;-94
2021/08/08 09:04:52;;;;;;;0.50;0.50;;;;;;;25.34;68.37;100543.19;1632536;86;21109;-90
2021/08/08 09:07:19;;;;;;;1.25;0.60;;;;;;;25.45;67.41;100545.56;1661766;86;21085;-89
2021/08/08 09:09:46;;;;;;;0.75;0.47;;;;;;;25.47;68.25;100552.95;1661208;86;21491;-89
2021/08/08 09:12:24;;;;;;;0.82;0.57;;;;;;;25.57;66.86;100557.92;1664679;85;22231;-90
2021/08/08 09:15:03;;;;;;;1.62;0.80;;;;;;;25.71;67.24;100554.48;1633393;87;21312;-90
2021/08/08 09:17:36;;;;;;;0.93;0.65;;;;;;;25.61;66.20;100562.95;1661629;86;21378;-90
2021/08/08 09:20:10;;;;;;;0.95;0.55;;;;;;;25.51;67.80;100553.83;1661589;85;21084;-89
2021/08/08 09:22:38;;;;;;;0.40;0.40;;;;;;;25.71;67.62;100552.48;1669667;85;21068;-90
2021/08/08 09:25:09;;;;;;;0.40;0.40;;;;;;;25.80;66.95;100556.41;1651748;86;21541;-92
2021/08/08 09:27:38;;;;;;;1.15;0.50;;;;;;;25.72;66.08;100550.52;1655430;86;21086;-94
2021/08/08 09:30:19;;;;;;;0.50;0.50;;;;;;;25.69;65.68;100553.48;1658545;86;21636;-89
2021/08/08 09:32:46;;;;;;;0.55;0.55;;;;;;;25.80;69.04;100554.21;1671436;85;21050;-89
2021/08/08 09:35:21;;;;;;;0.40;0.37;;;;;;;26.01;68.50;100550.88;1676105;85;21065;-89
2021/08/08 09:38:00;;;;;;;1.15;0.50;;;;;;;26.22;68.07;100555.94;1675613;85;21584;-95
2021/08/08 09:40:27;;;;;;;1.55;0.80;;;;;;;26.38;68.26;100543.88;1674994;85;21055;-91
2021/08/08 09:42:54;;;;;;;0.30;0.30;;;;;;;26.56;67.98;100556.71;1666386;85;21026;-94
2021/08/08 09:45:34;;;;;;;0.47;0.45;;;;;;;26.68;65.31;100564.00;1661036;86;21496;-90
2021/08/08 09:48:01;;;;;;;0.40;0.40;;;;;;;26.73;63.91;100559.44;1661122;86;21052;-89
2021/08/08 09:50:30;;;;;;;0.40;0.40;;;;;;;26.74;63.60;100559.67;1661278;86;21066;-95
2021/08/08 09:52:59;;;;;;;0.35;0.35;;;;;;;26.77;62.73;100572.91;1664975;85;21108;-95
2021/08/08 09:55:33;;;;;;;0.40;0.40;;;;;;;26.74;62.90;100566.67;1661085;86;21564;-90
2021/08/08 09:58:01;;;;;;;0.75;0.40;;;;;;;26.76;62.46;100567.90;1661163;86;21308;-90
2021/08/08 10:00:36;;;;;;;0.75;0.37;;;;;;;26.83;62.73;100574.17;1661017;86;21072;-91
2021/08/08 10:03:03;;;;;;;0.40;0.40;;;;;;;26.93;62.56;100580.46;1671332;85;21082;-93
2021/08/08 10:05:36;;;;;;;1.65;0.40;;;;;;;26.94;62.14;100572.25;1674992;85;21078;-89
2021/08/08 10:08:16;;;;;;;0.30;0.30;;;;;;;26.93;61.11;100581.86;1658534;86;21117;-93
2021/08/08 10:10:46;;;;;;;0.30;0.30;;;;;;;26.93;61.19;100573.45;1659182;85;21017;-92
2021/08/08 10:13:40;;;;;;;0.40;0.40;;;;;;;26.90;61.60;100561.59;1672825;85;21002;-90
2021/08/08 10:16:10;;;;;;;;;;;;;;;26.91;62.98;100584.24;1678430;84;21133;-89
2021/08/08 10:18:42;;;;;;;0.85;0.47;;;;;;;26.81;63.08;100571.75;1678626;85;20204;-94
2021/08/08 10:21:09;;;;;;;0.60;0.60;;;;;;;26.88;62.45;100570.18;1678978;85;21171;-93
2021/08/08 10:23:36;;;;;;;0.78;0.65;;;;;;;26.94;60.96;100577.05;1669516;85;21489;-94
2021/08/08 10:26:04;;;;;;;0.75;0.53;;;;;;;26.97;60.64;100573.47;1666413;86;21659;-95
2021/08/08 10:28:31;;;;;;;0.60;0.60;;;;;;;26.96;63.54;100569.87;1666217;86;21046;-89
2021/08/08 10:31:02;;;;;;;0.30;0.30;;;;;;;26.92;62.52;100570.42;1666508;86;21010;-94
2021/08/08 10:33:29;;;;;;;;;;;;;;;27.02;62.17;100573.91;1672036;85;21462;-89
2021/08/08 10:35:56;;;;;;;0.50;0.50;;;;;;;26.98;64.06;100574.49;1666363;86;20176;-89
2021/08/08 10:38:22;;;;;;;0.50;0.50;;;;;;;27.02;65.00;100576.70;1666586;86;21098;-95
2021/08/08 10:40:49;;;;;;;0.88;0.72;;;;;;;27.15;63.97;100575.00;1639675;86;21089;-90
2021/08/08 10:43:27;;;;;;;0.90;0.80;;;;;;;27.32;63.21;100571.54;1648987;86;21018;-91
2021/08/08 10:46:06;;;;;;;1.40;0.72;;;;;;;27.55;63.09;100571.91;1637783;87;21041;-89
2021/08/08 10:48:36;;;;;;;1.05;0.60;;;;;;;27.76;61.34;100574.80;1662389;86;21063;-89
2021/08/08 10:51:17;;;;;;;0.50;0.43;;;;;;;27.93;63.84;100570.49;1645206;85;21247;-89
2021/08/08 10:53:44;;;;;;;1.37;0.70;;;;;;;28.11;60.83;100571.95;1635892;87;21073;-89
2021/08/08 10:56:12;;;;;;;0.57;0.57;;;;;;;28.20;59.76;100572.39;1651847;86;21084;-94
2021/08/08 10:58:41;;;;;;;1.77;0.62;;;;;;;28.21;61.48;100570.38;1666605;86;21664;-93
2021/08/08 11:01:18;;;;;;;0.72;0.70;;;;;;;28.30;60.85;100565.99;1667170;86;21066;-92
2021/08/08 11:03:56;;;;;;;1.55;0.60;;;;;;;28.48;59.25;100571.67;1641707;86;21063;-89
2021/08/08 11:06:25;;;;;;;0.50;0.50;;;;;;;28.59;57.51;100572.31;1639384;86;21600;-89
2021/08/08 11:08:56;;;;;;;0.55;0.55;;;;;;;28.62;59.97;100580.73;1638490;87;22002;-89
2021/08/08 11:11:28;;;;;;;0.57;0.50;;;;;;;28.68;59.04;100578.32;1639010;86;21068;-95
2021/08/08 11:14:10;;;;;;;0.65;0.50;;;;;;;28.68;57.96;100574.91;1640266;87;21068;-89
2021/08/08 11:16:40;;;;;;;1.12;0.50;;;;;;;28.59;58.02;100571.70;1643447;85;21628;-89
2021/08/08 11:19:06;;;;;;;0.40;0.40;;;;;;;28.44;59.07;100572.25;1670845;85;21024;-89
2021/08/08 11:21:34;;;;;;;0.40;0.40;;;;;;;28.42;58.44;100569.64;1669072;85;21483;-95
2021/08/08 11:24:04;;;;;;;0.53;0.50;;;;;;;28.51;57.13;100571.47;1669626;85;21044;-89
2021/08/08 11:26:31;;;;;;;1.07;0.53;;;;;;;28.52;57.04;100561.85;1644552;85;21519;-89
2021/08/08 11:29:01;;;;;;;0.90;0.90;;;;;;;28.50;56.31;100574.09;1670347;85;21067;-92